Time;durP1;ratioP1;P1;durP2;ratioP2;P2;SDS_P1;SDS_P2;PMS_P1;PMS_P2;Temp;Humidity;BMP_temperature;BMP_pressure;BME280_temperature;BME280_humidity;BME280_pressure;Samples;Min_cycle;Max_cycle;Signal;HPM_P1;HPM_P2
2022/04/24 00:00:24;;;;;;;13.02;6.38;;;;;;;14.81;51.92;98768.06;5015852;28;20018;-86
2022/04/24 00:02:49;;;;;;;13.18;5.93;;;;;;;15.65;52.00;98907.38;5032718;28;20029;-86
2022/04/24 00:05:15;;;;;;;10.38;5.38;;;;;;;15.30;52.20;98869.91;5015802;28;20509;-86
2022/04/24 00:07:40;;;;;;;10.15;5.72;;;;;;;15.81;52.59;98951.16;5033462;28;20049;-85
2022/04/24 00:10:06;;;;;;;12.02;6.00;;;;;;;15.80;52.18;98976.16;5015649;28;20032;-86
2022/04/24 00:12:31;;;;;;;9.65;5.85;;;;;;;15.93;52.70;99026.56;5015603;28;20017;-86
2022/04/24 00:14:57;;;;;;;13.10;6.00;;;;;;;15.62;52.84;98960.22;5033522;28;20100;-86
2022/04/24 00:17:22;;;;;;;12.43;6.45;;;;;;;15.43;52.66;98932.78;5015694;28;20072;-85
2022/04/24 00:19:48;;;;;;;13.25;5.93;;;;;;;15.33;52.93;98929.84;5016341;28;20018;-86
2022/04/24 00:22:14;;;;;;;10.60;6.03;;;;;;;14.46;52.67;98786.47;5016100;28;20029;-85
2022/04/24 00:24:39;;;;;;;12.32;6.85;;;;;;;15.34;52.93;98934.13;5016124;28;20105;-86
2022/04/24 00:27:07;;;;;;;10.68;6.20;;;;;;;15.36;53.05;98919.56;5033754;28;20098;-85
2022/04/24 00:29:32;;;;;;;12.13;5.07;;;;;;;15.14;53.03;98897.13;5033097;28;20021;-86
2022/04/24 00:31:58;;;;;;;14.20;6.45;;;;;;;15.84;53.06;98995.97;5015727;28;20441;-86
2022/04/24 00:34:23;;;;;;;11.65;6.43;;;;;;;15.36;53.03;98940.03;5033783;28;20100;-86
2022/04/24 00:36:48;;;;;;;8.02;6.05;;;;;;;15.41;53.01;98958.78;5016105;28;20079;-86
2022/04/24 00:39:14;;;;;;;9.80;5.78;;;;;;;16.12;53.17;99048.63;5033524;28;20022;-86
2022/04/24 00:41:47;;;;;;;12.75;6.57;;;;;;;15.85;52.78;98987.75;5053393;28;20029;-83
2022/04/24 00:44:13;;;;;;;11.63;6.72;;;;;;;15.35;53.12;98935.75;5037482;28;20022;-83
2022/04/24 00:46:44;;;;;;;10.90;6.05;;;;;;;16.03;53.33;99039.34;5050460;28;20022;-86
2022/04/24 00:49:12;;;;;;;13.05;6.03;;;;;;;15.65;53.31;99032.44;5032805;28;20029;-86
2022/04/24 00:51:38;;;;;;;10.90;6.30;;;;;;;15.70;53.53;99003.31;5014826;28;20025;-86
2022/04/24 00:54:07;;;;;;;8.75;6.07;;;;;;;14.43;53.35;98800.19;5032582;28;20022;-85
2022/04/24 00:56:33;;;;;;;9.85;6.38;;;;;;;15.63;53.20;98977.81;5014538;28;20049;-85
2022/04/24 00:59:01;;;;;;;7.57;6.50;;;;;;;14.86;53.38;98852.44;5032511;28;20040;-85
2022/04/24 01:01:27;;;;;;;11.40;6.35;;;;;;;14.87;53.32;98859.41;5032441;28;20040;-86
2022/04/24 01:03:54;;;;;;;10.70;5.95;;;;;;;15.22;53.27;98931.41;5016241;28;20452;-86
2022/04/24 01:06:19;;;;;;;13.68;6.40;;;;;;;15.48;53.35;98967.50;5032353;28;20079;-86
2022/04/24 01:08:44;;;;;;;12.65;7.00;;;;;;;14.12;53.08;98752.47;5031008;28;20037;-86
2022/04/24 01:11:10;;;;;;;13.23;7.05;;;;;;;15.37;53.28;98965.59;5032188;28;20116;-86
2022/04/24 01:13:35;;;;;;;11.13;6.45;;;;;;;15.58;52.98;99000.56;5014469;28;20487;-86
2022/04/24 01:16:01;;;;;;;8.82;6.15;;;;;;;15.50;53.22;98973.41;5014567;28;20035;-86
2022/04/24 01:18:26;;;;;;;9.02;5.95;;;;;;;15.70;53.32;99029.91;5014288;28;20044;-86
2022/04/24 01:20:52;;;;;;;9.63;6.78;;;;;;;15.30;53.13;98980.81;5014335;28;20506;-86
2022/04/24 01:23:17;;;;;;;12.15;6.15;;;;;;;15.72;53.07;99029.69;5014303;28;20064;-86
2022/04/24 01:25:43;;;;;;;9.27;6.20;;;;;;;15.83;53.21;99051.06;5014261;28;20029;-86
2022/04/24 01:28:09;;;;;;;12.23;6.35;;;;;;;15.88;53.49;99061.84;5014284;28;20029;-85
2022/04/24 01:30:36;;;;;;;10.68;6.00;;;;;;;15.82;53.58;99067.25;5032087;28;20505;-86
2022/04/24 01:33:01;;;;;;;9.77;6.22;;;;;;;15.52;53.67;99021.91;5032049;28;20541;-86
2022/04/24 01:35:27;;;;;;;12.45;6.53;;;;;;;15.50;53.83;99019.44;5031874;28;20121;-86
2022/04/24 01:37:55;;;;;;;10.57;6.35;;;;;;;15.50;53.55;99034.59;5031695;28;20032;-86
2022/04/24 01:40:21;;;;;;;14.05;6.78;;;;;;;15.73;53.61;99060.59;5014013;28;20025;-86
2022/04/24 01:42:46;;;;;;;13.68;6.50;;;;;;;15.18;53.60;99004.69;5013828;28;20044;-86
2022/04/24 01:45:11;;;;;;;11.10;6.00;;;;;;;15.50;53.64;99026.63;5013832;28;20108;-86
2022/04/24 01:47:37;;;;;;;13.35;6.25;;;;;;;15.73;53.90;99060.59;5013872;28;20487;-86
2022/04/24 01:50:02;;;;;;;11.95;5.72;;;;;;;15.03;53.83;98959.84;5031394;28;20022;-86
2022/04/24 01:52:28;;;;;;;10.80;6.43;;;;;;;15.23;53.69;99002.97;5014021;28;20052;-86
2022/04/24 01:54:53;;;;;;;10.45;5.75;;;;;;;15.18;53.95;99000.16;5031296;28;20083;-86
2022/04/24 01:57:19;;;;;;;10.00;6.35;;;;;;;15.03;54.28;98978.44;5013827;28;20052;-86
2022/04/24 01:59:44;;;;;;;8.23;5.85;;;;;;;15.43;54.22;99061.28;5031695;28;20422;-86
2022/04/24 02:02:09;;;;;;;12.05;6.10;;;;;;;14.05;53.80;98823.41;5013890;28;20548;-86
2022/04/24 02:04:35;;;;;;;10.82;5.63;;;;;;;14.74;54.21;98944.56;5013747;28;20048;-85
2022/04/24 02:07:00;;;;;;;9.75;5.93;;;;;;;15.20;54.00;99018.56;5031437;28;20453;-86
2022/04/24 02:09:25;;;;;;;10.00;6.20;;;;;;;15.32;54.31;99043.41;5013573;28;20022;-86
2022/04/24 02:11:51;;;;;;;9.00;5.60;;;;;;;14.96;53.83;99006.94;5031481;28;20071;-86
2022/04/24 02:14:17;;;;;;;8.80;5.70;;;;;;;15.57;53.95;99083.25;5013632;28;20021;-86
2022/04/24 02:16:42;;;;;;;9.70;6.20;;;;;;;15.26;53.71;99034.44;5031264;28;20036;-86
2022/04/24 02:19:07;;;;;;;10.50;6.22;;;;;;;15.16;54.04;99023.50;5031333;28;20029;-86
2022/04/24 02:21:33;;;;;;;10.82;6.10;;;;;;;15.14;54.02;99017.59;5031596;28;20414;-86
2022/04/24 02:23:58;;;;;;;12.15;6.43;;;;;;;14.66;53.90;98960.78;5031467;28;20499;-86
2022/04/24 02:26:24;;;;;;;8.63;6.60;;;;;;;15.22;54.00;99053.72;5015482;28;20056;-86
2022/04/24 02:28:49;;;;;;;11.18;6.70;;;;;;;14.37;53.92;98931.19;5034360;28;20433;-86
2022/04/24 02:31:14;;;;;;;14.07;6.70;;;;;;;14.47;54.05;98968.72;5018028;28;20490;-86
2022/04/24 02:33:40;;;;;;;10.93;7.07;;;;;;;14.52;54.39;98995.44;5035140;28;20449;-86
2022/04/24 02:36:05;;;;;;;12.05;7.03;;;;;;;15.19;54.43;99086.91;5035098;28;20029;-86
2022/04/24 02:38:31;;;;;;;14.63;7.18;;;;;;;15.18;54.17;99093.25;5017168;28;20025;-86
2022/04/24 02:40:56;;;;;;;13.85;6.68;;;;;;;14.78;54.46;99023.63;5017122;28;20017;-86
2022/04/24 02:43:22;;;;;;;11.40;6.55;;;;;;;14.26;54.42;98958.44;5017229;28;20051;-86
2022/04/24 02:45:47;;;;;;;11.77;7.10;;;;;;;14.10;54.35;98938.53;5035153;28;20041;-86
2022/04/24 02:48:13;;;;;;;13.88;7.38;;;;;;;15.21;54.28;99095.47;5034915;28;20144;-86
2022/04/24 02:50:39;;;;;;;13.00;6.85;;;;;;;15.10;54.48;99071.44;5017206;28;20034;-86
2022/04/24 02:53:06;;;;;;;11.77;6.95;;;;;;;15.28;54.31;99098.06;5016944;28;20032;-86
2022/04/24 02:55:31;;;;;;;12.18;7.68;;;;;;;15.18;54.31;99085.28;5016834;28;20517;-86
2022/04/24 02:57:57;;;;;;;13.20;6.93;;;;;;;15.16;54.29;99107.78;5034530;28;20141;-85
2022/04/24 03:00:24;;;;;;;13.05;6.68;;;;;;;14.48;54.23;98978.31;5016500;28;20092;-86
2022/04/24 03:02:51;;;;;;;12.60;7.35;;;;;;;15.29;54.47;99106.84;5034889;28;20056;-86
2022/04/24 03:05:24;;;;;;;14.55;6.68;;;;;;;15.27;54.50;99113.22;5016981;28;20083;-86
2022/04/24 03:07:50;;;;;;;11.73;7.38;;;;;;;15.29;54.38;99117.50;5017110;28;20424;-86
2022/04/24 03:10:19;;;;;;;15.13;7.65;;;;;;;15.29;54.32;99120.16;5016977;28;20083;-86
2022/04/24 03:12:45;;;;;;;15.80;8.88;;;;;;;15.28;54.18;99124.66;5017045;28;20068;-85
2022/04/24 03:15:12;;;;;;;11.52;7.82;;;;;;;15.23;54.14;99120.00;5034638;28;20033;-86
2022/04/24 03:17:38;;;;;;;17.58;9.20;;;;;;;15.17;54.51;99128.03;5034900;28;20564;-86
2022/04/24 03:20:06;;;;;;;22.65;10.90;;;;;;;14.47;54.49;99013.88;5034789;28;20487;-87
2022/04/24 03:22:33;;;;;;;16.63;10.20;;;;;;;14.78;54.40;99076.78;5017401;28;20036;-86
2022/04/24 03:25:03;;;;;;;15.90;9.65;;;;;;;14.86;54.64;99089.00;5016966;28;20029;-86
2022/04/24 03:27:28;;;;;;;12.48;8.23;;;;;;;14.83;54.80;99105.38;5034337;28;20029;-86
2022/04/24 03:29:54;;;;;;;14.15;7.30;;;;;;;14.47;54.85;99048.41;5034363;28;20041;-86
2022/04/24 03:32:19;;;;;;;12.55;7.60;;;;;;;14.87;54.78;99149.94;5034534;28;20039;-86
2022/04/24 03:34:44;;;;;;;13.70;7.18;;;;;;;14.59;55.01;99101.66;5016479;28;20029;-86
2022/04/24 03:37:10;;;;;;;11.15;7.28;;;;;;;14.70;55.08;99145.34;5033299;28;20025;-86
2022/04/24 03:39:36;;;;;;;14.63;7.50;;;;;;;14.62;54.72;99127.81;5033732;28;20025;-86
2022/04/24 03:42:03;;;;;;;9.07;6.57;;;;;;;14.00;54.61;99018.63;5016429;28;20409;-87
2022/04/24 03:44:28;;;;;;;8.77;6.10;;;;;;;14.45;54.73;99122.19;5016338;28;20034;-86
2022/04/24 03:46:54;;;;;;;11.65;6.57;;;;;;;14.51;54.95;99141.78;5034080;28;20032;-86
2022/04/24 03:49:19;;;;;;;10.90;7.05;;;;;;;13.99;54.97;99054.16;5033810;28;20068;-86
2022/04/24 03:51:45;;;;;;;12.88;7.70;;;;;;;14.34;55.02;99114.06;5033775;28;20029;-86
2022/04/24 03:54:10;;;;;;;10.27;7.03;;;;;;;14.06;55.10;99072.69;5016006;28;20068;-86
2022/04/24 03:56:36;;;;;;;9.95;7.00;;;;;;;14.40;55.13;99131.78;5033662;28;20025;-86
2022/04/24 03:59:01;;;;;;;11.60;7.32;;;;;;;14.62;55.21;99176.44;5015931;28;20409;-86
2022/04/24 04:01:27;;;;;;;12.15;8.10;;;;;;;14.61;55.52;99181.97;5015865;28;20030;-86
2022/04/24 04:03:53;;;;;;;14.05;7.93;;;;;;;14.59;55.28;99202.63;5016090;28;20056;-86
2022/04/24 04:06:19;;;;;;;14.38;8.35;;;;;;;13.42;55.56;99027.66;5016166;28;20509;-86
2022/04/24 04:08:45;;;;;;;15.07;8.68;;;;;;;14.22;55.13;99135.97;5016243;28;20498;-86
2022/04/24 04:11:10;;;;;;;15.32;8.85;;;;;;;14.54;55.39;99189.16;5015918;28;20021;-87
2022/04/24 04:13:35;;;;;;;12.85;8.57;;;;;;;14.44;55.47;99180.84;5015965;28;20068;-86
2022/04/24 04:16:01;;;;;;;14.15;8.15;;;;;;;13.94;55.13;99109.72;5015806;28;20030;-86
2022/04/24 04:18:26;;;;;;;14.02;7.93;;;;;;;14.18;55.50;99147.22;5033217;28;20033;-86
2022/04/24 04:20:52;;;;;;;14.13;7.90;;;;;;;14.50;55.54;99210.03;5015400;28;20030;-86
2022/04/24 04:23:17;;;;;;;12.30;8.80;;;;;;;14.29;55.60;99192.50;5033238;28;20029;-87
2022/04/24 04:25:43;;;;;;;14.23;9.13;;;;;;;14.54;55.58;99215.72;5032931;28;20455;-86
2022/04/24 04:28:08;;;;;;;15.65;9.77;;;;;;;13.65;55.43;99065.13;5015440;28;20107;-86
2022/04/24 04:30:34;;;;;;;13.15;10.27;;;;;;;14.05;55.40;99136.63;5033005;28;20021;-86
2022/04/24 04:33:00;;;;;;;16.60;11.73;;;;;;;14.00;55.21;99116.03;5015628;28;20021;-86
2022/04/24 04:35:26;;;;;;;22.42;12.18;;;;;;;14.63;55.33;99222.44;5033656;28;20033;-86
2022/04/24 04:37:51;;;;;;;15.27;12.68;;;;;;;14.50;55.35;99201.25;5034316;28;20033;-86
2022/04/24 04:40:20;;;;;;;14.13;10.98;;;;;;;14.33;55.30;99198.22;5033929;28;20025;-86
2022/04/24 04:42:47;;;;;;;16.23;10.48;;;;;;;14.77;55.04;99249.75;5033062;28;20033;-86
2022/04/24 04:45:13;;;;;;;15.98;11.30;;;;;;;13.18;55.24;98992.00;5015494;28;20025;-87
2022/04/24 04:47:39;;;;;;;14.90;10.85;;;;;;;13.99;55.12;99125.00;5015054;28;20052;-86
2022/04/24 04:50:05;;;;;;;14.25;8.95;;;;;;;14.90;54.98;99261.16;5032288;28;20108;-86
2022/04/24 04:52:30;;;;;;;14.63;10.10;;;;;;;14.88;55.17;99241.13;5014948;28;20025;-86
2022/04/24 04:54:55;;;;;;;10.57;8.40;;;;;;;14.46;54.88;99137.09;5032626;28;20124;-86
2022/04/24 04:57:21;;;;;;;10.48;8.52;;;;;;;14.74;54.83;99178.41;5014485;28;20530;-86
2022/04/24 04:59:46;;;;;;;12.65;8.70;;;;;;;15.14;54.82;99243.63;5014800;28;20025;-86
2022/04/24 05:02:12;;;;;;;12.90;8.23;;;;;;;15.14;54.65;99230.34;5032291;28;20036;-86
2022/04/24 05:04:38;;;;;;;14.88;8.15;;;;;;;14.90;54.59;99176.09;5032212;28;20053;-86
2022/04/24 05:07:04;;;;;;;14.68;8.70;;;;;;;15.11;54.45;99196.19;5014209;28;20528;-86
2022/04/24 05:09:29;;;;;;;10.68;8.45;;;;;;;14.85;54.15;99148.50;5032255;28;20034;-86
2022/04/24 05:11:55;;;;;;;13.98;8.32;;;;;;;15.37;54.26;99213.78;5014811;28;20032;-86
2022/04/24 05:14:20;;;;;;;11.75;8.27;;;;;;;15.27;54.50;99202.81;5015034;28;20080;-86
2022/04/24 05:16:46;;;;;;;12.77;8.52;;;;;;;14.99;54.21;99143.94;5014658;28;20029;-86
2022/04/24 05:19:11;;;;;;;14.10;8.65;;;;;;;15.33;54.21;99171.88;5015135;28;20037;-86
2022/04/24 05:21:36;;;;;;;13.23;9.05;;;;;;;15.27;54.11;99166.41;5033164;28;20108;-86
2022/04/24 05:24:02;;;;;;;15.82;9.90;;;;;;;15.87;54.44;99267.06;5015242;28;20021;-86
2022/04/24 05:26:27;;;;;;;14.43;9.70;;;;;;;15.38;54.28;99167.53;5032720;28;20048;-86
2022/04/24 05:28:53;;;;;;;16.05;9.18;;;;;;;15.52;54.06;99165.56;5015094;28;20022;-86
2022/04/24 05:31:19;;;;;;;13.13;9.35;;;;;;;16.12;54.32;99232.41;5014530;28;20037;-85
2022/04/24 05:33:45;;;;;;;11.07;8.45;;;;;;;15.44;53.80;99100.16;5014260;28;20087;-85
2022/04/24 05:36:10;;;;;;;12.35;6.97;;;;;;;15.53;53.82;99114.78;5014659;28;20029;-86
2022/04/24 05:38:36;;;;;;;14.35;8.00;;;;;;;16.35;53.84;99235.25;5014195;28;20143;-86
2022/04/24 05:41:02;;;;;;;10.63;6.38;;;;;;;15.95;53.86;99165.59;5031918;28;20030;-86
2022/04/24 05:43:28;;;;;;;10.60;5.50;;;;;;;15.69;53.70;99102.00;5031937;28;20485;-86
2022/04/24 05:45:53;;;;;;;8.07;5.35;;;;;;;16.26;53.64;99169.13;5031838;28;20160;-85
2022/04/24 05:48:19;;;;;;;10.80;5.45;;;;;;;15.66;53.58;99063.34;5031605;28;20028;-86
2022/04/24 05:50:45;;;;;;;8.88;5.72;;;;;;;16.49;53.44;99198.59;5013828;28;20452;-86
2022/04/24 05:53:10;;;;;;;9.10;5.10;;;;;;;16.14;53.46;99116.63;5031610;28;20037;-86
2022/04/24 05:55:36;;;;;;;8.98;4.60;;;;;;;16.20;53.32;99129.03;5031513;28;20025;-86
2022/04/24 05:58:01;;;;;;;5.85;4.35;;;;;;;16.73;53.27;99199.53;5031456;28;20541;-86
2022/04/24 06:00:27;;;;;;;8.25;3.78;;;;;;;16.47;53.04;99147.38;5012783;28;20021;-86
2022/04/24 06:02:53;;;;;;;8.95;4.38;;;;;;;17.15;52.59;99224.38;5031458;28;20030;-86
2022/04/24 06:05:18;;;;;;;9.15;4.20;;;;;;;15.86;52.71;99009.84;5013722;28;20494;-85
2022/04/24 06:07:44;;;;;;;7.25;4.20;;;;;;;16.27;52.31;99070.34;5013904;28;20036;-86
2022/04/24 06:10:10;;;;;;;6.20;3.90;;;;;;;16.64;52.34;99112.88;5031658;28;20113;-86
2022/04/24 06:12:55;;;;;;;7.38;4.00;;;;;;;17.21;51.94;99191.47;5014037;28;20406;-86
2022/04/24 06:15:24;;;;;;;6.97;3.58;;;;;;;15.63;52.11;98928.06;5031550;28;20029;-86
2022/04/24 06:17:51;;;;;;;9.98;3.90;;;;;;;16.32;51.80;99032.38;5032064;28;20112;-86
2022/04/24 06:20:18;;;;;;;7.80;3.50;;;;;;;17.58;51.56;99221.44;5031826;28;20021;-86
2022/04/24 06:22:49;;;;;;;8.25;3.22;;;;;;;17.64;51.66;99219.69;5031708;28;20033;-86
2022/04/24 06:25:29;;;;;;;7.63;3.60;;;;;;;17.10;51.12;99137.03;5014462;28;20030;-86
2022/04/24 06:27:55;;;;;;;12.57;4.13;;;;;;;17.42;51.02;99179.41;5056941;28;20014;-85
2022/04/24 06:30:24;;;;;;;6.35;3.50;;;;;;;17.29;50.25;99140.41;5041057;28;20064;-84
2022/04/24 06:32:49;;;;;;;6.30;3.42;;;;;;;17.70;50.42;99195.59;5024448;28;20036;-86
2022/04/24 06:35:16;;;;;;;8.43;3.03;;;;;;;17.99;50.55;99219.75;5031318;28;20026;-85
2022/04/24 06:37:44;;;;;;;9.43;3.70;;;;;;;17.64;50.58;99164.44;5013648;28;20100;-85
2022/04/24 06:40:11;;;;;;;6.85;3.58;;;;;;;17.52;50.15;99139.59;5013438;28;20423;-86
2022/04/24 06:42:47;;;;;;;12.05;3.60;;;;;;;17.46;50.18;99112.00;5013448;28;20490;-86
2022/04/24 06:45:13;;;;;;;8.55;3.80;;;;;;;17.87;50.07;99181.56;5031313;28;20030;-86
2022/04/24 06:47:38;;;;;;;8.30;3.40;;;;;;;18.12;50.00;99221.34;5013912;28;20026;-85
2022/04/24 06:50:04;;;;;;;8.95;3.83;;;;;;;17.75;49.44;99125.47;5031917;28;20502;-86
2022/04/24 06:52:29;;;;;;;7.18;3.88;;;;;;;18.44;49.43;99219.88;5013745;28;20036;-85
2022/04/24 06:54:55;;;;;;;11.70;4.22;;;;;;;17.82;49.27;99120.81;5013403;28;20544;-85
2022/04/24 06:57:20;;;;;;;8.77;3.67;;;;;;;18.36;49.41;99197.00;5031334;28;20064;-86
2022/04/24 06:59:45;;;;;;;6.43;3.70;;;;;;;18.00;49.18;99136.69;5013616;28;20493;-85
2022/04/24 07:02:11;;;;;;;11.57;4.28;;;;;;;18.23;49.03;99157.19;5013573;28;20036;-86
2022/04/24 07:04:37;;;;;;;9.18;3.70;;;;;;;18.07;49.01;99109.84;5013331;28;20021;-86
2022/04/24 07:07:02;;;;;;;8.55;3.58;;;;;;;18.33;48.75;99149.38;5030840;28;20029;-86
2022/04/24 07:09:29;;;;;;;6.80;3.85;;;;;;;18.85;48.56;99210.03;5030753;28;20031;-85
2022/04/24 07:11:54;;;;;;;12.70;4.28;;;;;;;19.04;48.61;99209.56;5031476;28;20040;-86
2022/04/24 07:14:20;;;;;;;9.15;3.70;;;;;;;18.63;48.47;99151.06;5034506;28;20029;-86
2022/04/24 07:16:45;;;;;;;6.15;3.17;;;;;;;18.95;48.55;99186.94;5016541;28;20543;-86
2022/04/24 07:19:11;;;;;;;11.10;4.35;;;;;;;19.17;48.30;99194.25;5036543;28;20064;-85
2022/04/24 07:21:36;;;;;;;6.55;3.47;;;;;;;19.09;48.36;99178.59;5039061;28;20025;-83
2022/04/24 07:24:03;;;;;;;9.55;4.47;;;;;;;18.68;48.16;99098.47;5057243;28;20033;-84
2022/04/24 07:26:28;;;;;;;11.15;4.82;;;;;;;18.97;48.11;99143.91;5056742;28;20033;-83
2022/04/24 07:28:54;;;;;;;7.20;3.70;;;;;;;18.34;47.62;99020.03;5026840;28;20033;-86
2022/04/24 07:31:19;;;;;;;11.13;4.00;;;;;;;19.53;47.66;99215.25;5016474;28;20069;-85
2022/04/24 07:33:45;;;;;;;7.30;4.05;;;;;;;18.89;47.24;99099.63;5036724;28;20033;-85
2022/04/24 07:36:11;;;;;;;11.02;4.25;;;;;;;19.12;47.15;99108.53;5036687;28;20040;-86
2022/04/24 07:38:36;;;;;;;9.68;3.72;;;;;;;19.13;47.08;99102.94;5036457;28;20437;-86
2022/04/24 07:41:03;;;;;;;11.02;4.63;;;;;;;20.00;46.94;99236.31;5035441;28;20021;-85
2022/04/24 07:43:28;;;;;;;8.00;4.00;;;;;;;20.08;46.49;99217.16;5033926;28;20033;-86
2022/04/24 07:45:54;;;;;;;8.45;3.85;;;;;;;20.08;46.64;99221.69;5016281;28;20029;-86
2022/04/24 07:48:20;;;;;;;11.90;4.13;;;;;;;19.92;46.24;99167.88;5034877;28;20033;-86
2022/04/24 07:50:49;;;;;;;7.68;3.83;;;;;;;20.23;46.34;99219.22;5016113;28;20438;-85
2022/04/24 07:53:16;;;;;;;15.65;4.63;;;;;;;20.25;45.92;99214.41;5016540;28;20053;-86
2022/04/24 07:55:43;;;;;;;11.23;3.72;;;;;;;20.43;45.86;99211.47;5016484;28;20155;-85
2022/04/24 07:58:08;;;;;;;10.60;3.92;;;;;;;19.74;45.29;99081.63;5033968;28;20522;-86
2022/04/24 08:00:34;;;;;;;10.38;3.92;;;;;;;20.03;45.32;99123.25;5016024;28;20064;-85
2022/04/24 08:03:05;;;;;;;9.80;3.70;;;;;;;20.14;45.22;99145.66;5015932;28;20095;-86
2022/04/24 08:05:31;;;;;;;10.48;3.38;;;;;;;20.27;45.12;99151.44;5033531;28;20493;-85
2022/04/24 08:07:59;;;;;;;9.98;3.92;;;;;;;20.82;45.13;99220.25;5015793;28;20418;-86
2022/04/24 08:10:28;;;;;;;14.57;4.32;;;;;;;20.92;44.82;99201.56;5033420;28;20033;-85
2022/04/24 08:12:53;;;;;;;13.13;3.20;;;;;;;21.07;44.71;99210.81;5015748;28;20060;-85
2022/04/24 08:15:19;;;;;;;9.82;3.65;;;;;;;20.93;44.47;99164.78;5033877;28;20523;-86
2022/04/24 08:17:44;;;;;;;8.20;3.50;;;;;;;20.66;44.17;99115.69;5033462;28;20018;-86
2022/04/24 08:20:12;;;;;;;12.02;4.45;;;;;;;20.93;43.88;99127.22;5033539;28;20418;-86
2022/04/24 08:22:38;;;;;;;6.38;3.17;;;;;;;21.41;43.65;99185.34;5034042;28;20040;-85
2022/04/24 08:25:06;;;;;;;11.82;3.47;;;;;;;21.52;43.60;99184.34;5015727;28;20025;-85
2022/04/24 08:27:32;;;;;;;10.75;4.13;;;;;;;21.16;43.04;99123.38;5015906;28;20052;-85
2022/04/24 08:29:57;;;;;;;13.88;4.47;;;;;;;21.52;43.00;99156.69;5033490;28;20475;-86
2022/04/24 08:32:24;;;;;;;8.50;4.10;;;;;;;21.16;42.91;99102.72;5016138;28;20120;-86
2022/04/24 08:34:50;;;;;;;10.35;4.20;;;;;;;21.61;43.19;99141.72;5033594;28;20064;-86
2022/04/24 08:37:15;;;;;;;8.07;3.97;;;;;;;21.75;43.05;99160.88;5033459;28;20483;-86
2022/04/24 08:39:41;;;;;;;10.65;3.92;;;;;;;21.89;42.64;99153.97;5033253;28;20108;-86
2022/04/24 08:42:09;;;;;;;14.13;4.30;;;;;;;22.26;42.75;99169.22;5033229;28;20022;-86
2022/04/24 08:44:36;;;;;;;10.00;4.13;;;;;;;22.27;42.63;99168.16;5033175;28;20026;-86
2022/04/24 08:47:01;;;;;;;9.63;4.15;;;;;;;22.20;42.89;99136.94;5015377;28;20029;-86
2022/04/24 08:49:31;;;;;;;10.75;4.43;;;;;;;22.27;42.50;99131.31;5033022;28;20109;-86
2022/04/24 08:51:59;;;;;;;11.10;4.45;;;;;;;22.40;42.26;99108.50;5033152;28;20083;-85
2022/04/24 08:54:27;;;;;;;14.45;4.32;;;;;;;22.25;42.09;99057.34;5032948;28;20031;-85
2022/04/24 08:56:52;;;;;;;13.02;4.05;;;;;;;23.05;41.58;99161.66;5015012;28;20411;-86
2022/04/24 08:59:18;;;;;;;13.73;4.30;;;;;;;22.40;41.61;99043.94;5015102;28;20052;-85
2022/04/24 09:01:45;;;;;;;11.70;5.07;;;;;;;22.32;40.83;99031.03;5032712;28;20033;-85
2022/04/24 09:04:10;;;;;;;11.13;3.85;;;;;;;23.38;40.81;99146.03;5032584;28;20029;-86
2022/04/24 09:06:35;;;;;;;11.15;3.75;;;;;;;23.29;40.39;99109.94;5014952;28;20388;-86
2022/04/24 09:09:05;;;;;;;9.60;4.20;;;;;;;22.97;40.13;99010.59;5032745;28;20025;-86
2022/04/24 09:11:33;;;;;;;12.20;4.03;;;;;;;23.93;39.96;99137.06;5014721;28;20491;-85
2022/04/24 09:16:53;;;;;;;6.45;3.30;;;;;;;24.14;39.26;99110.00;5032422;28;20049;-85
2022/04/24 09:19:26;;;;;;;14.65;4.60;;;;;;;24.48;39.06;99139.81;5031981;28;20029;-85
2022/04/24 09:22:00;;;;;;;9.90;4.13;;;;;;;24.13;38.74;99057.94;5032103;28;20144;-85
2022/04/24 09:24:37;;;;;;;14.40;4.38;;;;;;;24.80;37.98;99133.97;5014356;28;20516;-85
2022/04/24 09:27:02;;;;;;;15.82;5.07;;;;;;;24.30;37.53;99061.13;5014091;28;20021;-85
2022/04/24 09:29:28;;;;;;;14.23;4.40;;;;;;;24.39;36.96;99015.47;5032106;28;20079;-85
2022/04/24 09:31:53;;;;;;;17.48;4.75;;;;;;;24.69;36.66;99033.34;5032027;28;20128;-85
2022/04/24 09:34:20;;;;;;;11.70;3.85;;;;;;;25.38;36.23;99124.06;5014247;28;20037;-85
2022/04/24 09:36:57;;;;;;;14.57;4.03;;;;;;;25.52;36.18;99121.50;5031040;28;20064;-85
2022/04/24 09:39:31;;;;;;;18.67;5.55;;;;;;;25.58;35.84;99102.22;5014132;28;20066;-85
2022/04/24 09:42:07;;;;;;;16.27;4.72;;;;;;;25.72;35.26;99113.19;5014134;28;20029;-85
2022/04/24 09:44:45;;;;;;;15.27;4.78;;;;;;;25.92;34.98;99131.09;5014189;28;20061;-85
2022/04/24 09:47:12;;;;;;;13.88;4.45;;;;;;;25.42;34.87;99025.09;5014044;28;20076;-85
2022/04/24 09:49:40;;;;;;;11.52;4.13;;;;;;;26.24;35.03;99097.97;5031828;28;20116;-85
2022/04/24 09:52:17;;;;;;;16.27;4.13;;;;;;;26.35;34.65;99077.81;5013683;28;20065;-85
2022/04/24 09:54:50;;;;;;;12.05;4.00;;;;;;;26.12;34.22;99009.09;5012459;28;20045;-85
2022/04/24 09:57:17;;;;;;;13.95;4.35;;;;;;;26.36;34.16;99027.19;5013639;28;20045;-85
2022/04/24 09:59:45;;;;;;;13.80;4.90;;;;;;;26.66;33.73;99044.84;5031273;28;20030;-85
2022/04/24 10:02:12;;;;;;;13.98;5.03;;;;;;;27.11;33.03;99101.03;5013961;28;20083;-85
2022/04/24 10:04:39;;;;;;;18.17;4.30;;;;;;;26.86;32.59;99049.97;5014454;28;20101;-85
2022/04/24 10:07:06;;;;;;;15.98;4.45;;;;;;;26.87;32.07;99016.34;5014253;28;20037;-85
2022/04/24 10:09:37;;;;;;;15.48;4.25;;;;;;;26.99;31.77;99051.94;5032153;28;20029;-85
2022/04/24 10:12:08;;;;;;;10.38;3.88;;;;;;;27.37;31.92;99062.63;5031606;28;20509;-85
2022/04/24 10:14:39;;;;;;;11.30;3.63;;;;;;;27.19;31.87;99010.91;5031837;28;20032;-85
2022/04/24 10:17:26;;;;;;;12.82;3.83;;;;;;;27.22;31.71;98996.75;5014262;28;20112;-85
2022/04/24 10:20:15;;;;;;;15.98;4.68;;;;;;;26.67;31.46;98919.97;5031546;28;20482;-85
2022/04/24 10:22:47;;;;;;;15.27;4.43;;;;;;;27.83;30.90;99076.16;5031610;28;20376;-85
2022/04/24 10:25:15;;;;;;;13.45;4.45;;;;;;;27.66;30.90;99094.94;5014059;28;20105;-85
2022/04/24 10:27:45;;;;;;;11.70;4.35;;;;;;;27.94;30.70;99068.59;5031886;28;20032;-85
2022/04/24 10:30:25;;;;;;;14.43;4.70;;;;;;;28.01;30.80;99031.00;5031390;28;20026;-85
2022/04/24 10:33:15;;;;;;;14.15;4.57;;;;;;;28.21;29.98;99056.88;5013744;28;20025;-85
2022/04/24 10:35:53;;;;;;;13.88;4.55;;;;;;;28.34;30.01;99050.66;5031798;28;20017;-85
2022/04/24 10:38:22;;;;;;;15.43;4.25;;;;;;;28.44;30.07;99070.25;5032506;28;20081;-85
2022/04/24 10:41:13;;;;;;;13.55;4.38;;;;;;;28.20;29.49;99007.22;5032305;28;20054;-84
2022/04/24 10:43:46;;;;;;;13.27;4.40;;;;;;;28.44;29.49;99075.66;5031789;28;20083;-85
2022/04/24 10:46:32;;;;;;;15.50;4.03;;;;;;;28.25;29.47;99031.59;5031768;28;20510;-85
2022/04/24 10:49:09;;;;;;;9.98;3.97;;;;;;;28.27;29.07;98985.94;5035095;28;20156;-85
2022/04/24 10:51:35;;;;;;;14.57;3.78;;;;;;;28.80;28.86;99025.91;5017040;28;20028;-85
2022/04/24 10:54:13;;;;;;;13.20;4.20;;;;;;;29.12;28.78;99043.09;5016975;28;20498;-84
2022/04/24 10:56:42;;;;;;;10.88;3.47;;;;;;;29.10;28.52;99055.06;5034627;28;20056;-85
2022/04/24 10:59:08;;;;;;;10.95;3.40;;;;;;;29.21;27.86;99035.78;5034719;28;20064;-84
2022/04/24 11:01:35;;;;;;;11.18;4.10;;;;;;;29.48;27.66;99034.78;5017058;28;20410;-85
2022/04/24 11:04:08;;;;;;;16.20;4.65;;;;;;;29.45;27.68;99035.41;5017252;28;20485;-85
2022/04/24 11:06:34;;;;;;;11.55;3.95;;;;;;;28.86;27.35;98964.91;5034808;28;20028;-85
2022/04/24 11:09:10;;;;;;;10.75;3.35;;;;;;;29.08;27.73;99010.28;5016805;28;20029;-85
2022/04/24 11:12:04;;;;;;;8.38;3.53;;;;;;;29.22;27.47;98963.97;5017057;28;20052;-85
2022/04/24 11:14:30;;;;;;;11.88;3.90;;;;;;;29.30;27.28;98958.56;5034637;28;20167;-85
2022/04/24 11:17:05;;;;;;;13.63;4.03;;;;;;;29.87;27.29;99006.75;5034534;28;20096;-85
2022/04/24 11:19:36;;;;;;;10.95;4.10;;;;;;;29.63;27.26;98969.06;5034101;28;20052;-85
2022/04/24 11:22:04;;;;;;;8.60;3.90;;;;;;;29.73;27.15;99031.38;5034423;28;20056;-84
2022/04/24 11:24:32;;;;;;;10.52;3.85;;;;;;;29.27;27.76;98948.31;5034161;28;20055;-85
2022/04/24 11:27:05;;;;;;;11.15;3.80;;;;;;;29.33;27.59;98941.59;5034138;28;20029;-84
2022/04/24 11:29:31;;;;;;;11.05;4.00;;;;;;;29.25;27.88;98941.59;5016483;28;20033;-84